Terminal Aerodrome Forecast
Issued by NWS

Home | Current Version | Previous Version | Text Only | Print | Product List | Glossary On
Versions: 1 2 3 4 5 6 7 8 9 10 11 12 13 14 15 16 17 18 19 20 21 22 23 24 25
000
FTUS43 KIND 020823 AAA
TAFLAF
TAF AMD
KLAF 020823Z 0208/0306 21003KT 4SM BR SCT060
     FM021500 26007KT P6SM SCT040
     FM030100 00000KT P6SM FEW040=

USA.gov is the U.S. government's official web portal to all federal, state and local government web resources and services.